Terminal Aerodrome Forecast
Issued by NWS Buffalo, NY

Home | Current Version | Previous Version | Text Only | Print | Product List | Glossary On
Versions: 1 2 3 4 5 6 7 8 9 10 11 12 13 14 15 16 17 18 19 20 21 22 23 24 25 26 27 28 29
000
FTUS41 KBUF 281130
TAFBUF
TAF
KBUF 281130Z 2812/2912 22008KT P6SM SCT070
     FM281500 25013G20KT P6SM SCT050
     FM282200 24011KT P6SM FEW200
     FM290000 21005KT P6SM SCT200
     FM290400 17005KT P6SM BKN140
     FM290600 19006KT P6SM VCSH BKN110=

USA.gov is the U.S. government's official web portal to all federal, state and local government web resources and services.